Informationen zur Loipe auf der Atzenberger Höhe
 
Bodensee (Kressbronn): 3,9°C  -  Teich der Wetterzentrale Bad Schussenried: 2,2°C  
17.01.2021Höhe
ü. NN
ZeitTemperatur (°C)Nieder-
schlag
Luft-
feuchte
Luft-
druck
Wind
StationaktuellMinimumMaximumaktuellMaximum
Aldingen654 m01:21-4,2-4,8 (18:06)-4,2 (11:22)0,2 l/m²93%1020,611,1 km/h (2 Bft) O-SO16,7 km/h (3 Bft) O-SO (00:01)
Allmendingen541 m01:20-4,1-4,6 (21:30)-4,1 (13:25)0,0 l/m²92%1019,711,3 km/h (2 Bft) SW22,5 km/h (4 Bft) W-SW (16:50)
Altshausen574 m01:25-4,2-4,3 (00:00)-4,1 (01:02)0,0 l/m²92%1018,78,0 km/h (2 Bft) S-SO12,9 km/h (3 Bft) S-SO (01:21)
Amstetten-Reutti663 m01:20-5,1-6,1 (21:15)-5,1 (12:50)0,0 l/m²94%1019,714,5 km/h (3 Bft) S27,4 km/h (4 Bft) W-SW (13:50)
Aulendorf570 m01:20-4,4-4,6 (00:00)-4,3 (01:18)0,0 l/m²90%1019,94,8 km/h (1 Bft) S-SW9,7 km/h (2 Bft) S-SW (00:05)
Bachhagel489 m01:22-4,6-4,9 (00:00)-4,6 (01:06)0,0 l/m²91%1023,57,9 km/h (2 Bft) SW13,0 km/h (3 Bft) W-SW (00:21)
Bad Krozingen233 m01:20-1,2-1,3 (04:30)-1,1 (00:30)0,0 l/m²95%1020,20,0 km/h (0 Bft) S0,0 km/h (0 Bft) W (01:20)
Bad Krozingen-Tunsel229 m01:20-1,2-1,5 (04:10)-1,2 (23:30)0,0 l/m²91%1017,60,0 km/h (0 Bft) SW0,0 km/h (0 Bft) W-NW (02:00)
Bad Saulgau595 m01:20-3,8-4,0 (02:00)-3,7 (12:05)0,2 l/m²93%1018,88,0 km/h (2 Bft) S-SW14,5 km/h (3 Bft) W (18:35)
Bad Saulgau, Mannsgrab588 m01:21-4,1-4,1 (00:00)-4,0 (00:46)0,0 l/m²89%1021,416,2 km/h (3 Bft) S-SO16,2 km/h (3 Bft) S (01:17)
Bad Saulgau, SFZ Kälberweide594 m01:20-3,9-4,0 (00:01)-3,8 (00:17)0,0 l/m²94%1021,30,0 km/h (0 Bft) W-NW0,0 km/h (0 Bft) W-NW (00:00)
Bad Saulgau-Lampertsweiler627 m01:20-4,7-4,8 (01:00)-4,5 (00:05)0,2 l/m²91%1022,70,0 km/h (0 Bft) N0,0 km/h (0 Bft) N (00:00)
Bad Schussenried572 m01:20-4,2-4,5 (00:00)-4,2 (00:55)0,0 l/m²96%1018,312,9 km/h (3 Bft) S-SW12,9 km/h (3 Bft) SO (00:15)
Badenweiler350 m01:190,4-0,1 (00:35)0,4 (01:15)0,0 l/m²87%1018,613,3 km/h (3 Bft) W15,8 km/h (3 Bft) NW (00:22)
Baindt462 m01:24-3,3-3,5 (00:09)-3,3 (00:56)0,0 l/m²93%1021,08,0 km/h (2 Bft) S14,5 km/h (3 Bft) S (00:40)
Bergatreute615 m01:20-3,5-3,9 (00:00)-3,5 (01:20)0,0 l/m²96%1018,40,0 km/h (0 Bft) S-SW16,1 km/h (3 Bft) S-SW (00:20)
Biberach (Riss), Boehringer533 m02:20-3,3-4,2 (00:00)-3,2 (02:20)0,2 l/m²94%1018,18,3 km/h (2 Bft) S-SW21,6 km/h (4 Bft) S-SO (01:20)
Biberach (Riss), Realschule553 m01:20-4,1-4,5 (00:05)-4,1 (01:15)0,0 l/m²94%1020,812,9 km/h (3 Bft) S19,3 km/h (3 Bft) S-SW (00:25)
Burgrieden523 m01:20-4,1-4,4 (00:00)-4,1 (01:05)0,0 l/m²88%1019,60,0 km/h (0 Bft) S-SW0,0 km/h (0 Bft) NO (00:00)
Burgrieden-Hochstetten510 m01:20-3,7-3,9 (19:25)-3,7 (13:10)0,0 l/m²93%1020,04,8 km/h (1 Bft) S-SW17,7 km/h (3 Bft) SW (20:55)
Ebersbach579 m01:20-4,2-4,2 (00:05)-4,1 (00:00)0,0 l/m²95%1021,13,2 km/h (1 Bft) S-SO4,8 km/h (1 Bft) SO (01:05)
Ebersbach-Boos605 m01:20-4,6-4,8 (00:00)-4,5 (01:05)0,0 l/m²96%1020,812,9 km/h (3 Bft) S-SO12,9 km/h (3 Bft) SW (01:20)
Ebersbach-Menzenweiler661 m01:20-4,9-5,1 (00:05)-4,9 (00:20)0,0 l/m²98%1020,922,5 km/h (4 Bft) S-SO22,5 km/h (4 Bft) S-SO (01:20)
Erlenmoos645 m01:20-3,8-4,2 (00:05)-3,8 (01:00)0,0 l/m²47%1019,914,5 km/h (3 Bft) SW25,7 km/h (4 Bft) S-SW (00:40)
Ertingen569 m01:20-3,9-4,3 (00:00)-3,9 (01:20)0,8 l/m²95%1019,90,0 km/h (0 Bft) S0,0 km/h (0 Bft) S-SW (00:00)
Friedrichshafen405 m01:20-2,8-3,0 (02:00)-2,7 (15:20)0,0 l/m²92%1021,56,4 km/h (2 Bft) S-SO14,5 km/h (3 Bft) W (17:05)
Günzburg443 m01:20-3,4-3,9 (00:00)-3,4 (01:15)0,0 l/m²86%1017,08,0 km/h (2 Bft) W-SW11,3 km/h (2 Bft) W (00:15)
Hochdorf-Appendorf537 m01:20-4,1-4,3 (00:00)-4,1 (00:35)0,0 l/m²72%1019,824,1 km/h (4 Bft) S32,2 km/h (5 Bft) S-SO (00:10)
Horgenzell618 m01:200,00,0 (00:00)0,0 (00:00)0,0 l/m²94%1013,514,5 km/h (3 Bft) S-SW17,7 km/h (3 Bft) S-SW (00:05)
Hoßkirch632 m01:20-4,1-4,4 (00:00)-4,1 (00:55)0,0 l/m²94%1019,13,2 km/h (1 Bft) SO14,5 km/h (3 Bft) S (00:30)
Hüfingen682 m01:20-6,4-6,8 (00:00)-6,4 (01:14)0,0 l/m²97%1016,30,0 km/h (0 Bft) SW0,0 km/h (0 Bft) SW (00:00)
Immendingen750 m01:24-5,9-6,3 (00:00)-5,9 (00:43)0,0 l/m²95%1,10,0 km/h (0 Bft) NW0,0 km/h (0 Bft) NW (00:00)
Isny, Am Dreifingerbach695 m01:20-4,6-6,1 (00:00)-4,6 (01:20)0,0 l/m²94%1020,60,0 km/h (0 Bft) S-SW0,0 km/h (0 Bft) S-SW (01:20)
Isny, Weidachweg706 m01:20-4,4-6,2 (00:05)-4,4 (00:50)0,0 l/m²87%1022,90,0 km/h (0 Bft) O0,0 km/h (0 Bft) N (00:00)
Kappel-Grafenhausen163 m01:20-0,6-0,8 (00:00)-0,6 (00:53)0,0 l/m²94%1017,911,2 km/h (2 Bft) S22,7 km/h (4 Bft) S (00:34)
Kirchdorf an der Iller551 m01:23-3,9-4,1 (00:00)-3,8 (01:10)0,0 l/m²91%1021,39,7 km/h (2 Bft) W-SW19,4 km/h (3 Bft) W-SW (00:03)
Kißlegg-Staibshof709 m01:20-5,3-5,4 (00:00)-5,3 (01:20)0,0 l/m²97%1020,90,0 km/h (0 Bft) SW8,0 km/h (2 Bft) SW (00:00)
Kressbronn398 m01:24-3,0-3,8 (00:00)-3,0 (01:22)0,0 l/m²93%1020,219,3 km/h (3 Bft) SO19,3 km/h (3 Bft) SO (01:22)
Kristberg im Montafon (AT)1425 m01:24-7,0-7,6 (00:00)-7,0 (01:13)0,0 l/m²86%1023,86,8 km/h (2 Bft) N-NO6,8 km/h (2 Bft) N-NO (00:27)
Laupheim500 m01:20-4,1-4,3 (00:00)-4,0 (01:10)0,0 l/m²89%1019,19,7 km/h (2 Bft) S-SW14,5 km/h (3 Bft) SW (00:35)
Leutkirch-Heggelbach670 m01:20-5,0-5,2 (00:05)-4,9 (00:40)0,2 l/m²94%1019,50,0 km/h (0 Bft) SW0,0 km/h (0 Bft) N (00:00)
Lindau-Insel420 m01:20-3,3-3,3 (02:00)-2,9 (13:30)0,0 l/m²92%1021,011,3 km/h (2 Bft) S-SW16,1 km/h (3 Bft) S (01:05)
Lindau-Stadt412 m01:20-3,5-3,6 (02:00)-3,5 (12:05)0,0 l/m²92%1021,312,9 km/h (3 Bft) O14,5 km/h (3 Bft) O (23:20)
Maierhöfen im Allgäu733 m01:20-7,8-9,1 (00:00)-7,8 (01:20)0,2 l/m²93%1021,60,0 km/h (0 Bft) W-NW4,8 km/h (1 Bft) W-NW (00:25)
Maselheim543 m01:20-4,3-4,7 (00:00)-4,2 (01:15)0,0 l/m²91%1019,916,1 km/h (3 Bft) S-SW24,1 km/h (4 Bft) SW (01:00)
Maselheim-Sulmingen548 m01:20-4,3-4,6 (18:40)-4,3 (12:20)0,0 l/m²93%1021,39,7 km/h (2 Bft) SW25,7 km/h (4 Bft) SW (20:30)
Mietingen-Baltringen528 m01:20-3,9-4,3 (00:00)-3,9 (01:20)0,0 l/m²88%1021,09,7 km/h (2 Bft) W-SW16,1 km/h (3 Bft) W-SW (00:25)
Mittelbiberach577 m01:20-4,4-4,8 (00:00)-4,4 (01:12)0,0 l/m²91%1021,00,0 km/h (0 Bft) S0,0 km/h (0 Bft) S (00:00)
Müllheim230 m01:20-1,1-1,6 (00:30)-1,1 (01:17)0,0 l/m²94%1019,00,0 km/h (0 Bft) NO0,0 km/h (0 Bft) NO (00:00)
Neresheim552 m01:00-5,7-5,7 (01:00)-5,6 (00:00)0,0 l/m²96%1050,04,0 km/h (1 Bft) S-SW10,4 km/h (2 Bft) S-SW (00:00)
Neuhausen am Rheinfall (CH)428 m01:24-2,2-2,2 (00:00)-2,0 (00:45)0,0 l/m²76%1018,00,0 km/h (0 Bft) N1,6 km/h (1 Bft) NW (00:06)
Neukirch570 m01:20-4,3-4,4 (02:55)-4,2 (11:20)0,2 l/m²94%1021,111,3 km/h (2 Bft) SW16,1 km/h (3 Bft) S-SW (23:55)
Ochsenhausen, Birkenstraße583 m01:20-3,7-4,1 (20:20)-3,7 (12:25)0,0 l/m²87%1020,31,6 km/h (1 Bft) N1,6 km/h (1 Bft) N (02:00)
Ochsenhausen, Unt. Wiesen575 m01:20-3,9-4,3 (00:05)-3,9 (00:50)0,0 l/m²92%1021,412,9 km/h (3 Bft) S-SW24,1 km/h (4 Bft) SW (00:30)
Opfenbach-Göritz561 m01:23-5,4-5,9 (00:00)-5,2 (00:34)0,0 l/m²91%1019,34,7 km/h (1 Bft) S-SW11,2 km/h (2 Bft) S-SW (00:30)
Ostrach619 m01:20-3,0-3,2 (00:00)-3,0 (01:00)0,0 l/m²94%1018,611,3 km/h (2 Bft) S-SO14,5 km/h (3 Bft) S-SW (00:15)
Peißenberg590 m01:21-7,0-7,2 (00:00)-6,9 (00:54)0,0 l/m²88%1019,40,0 km/h (0 Bft) NW0,0 km/h (0 Bft) W (00:41)
Ravensburg, Goethestraße428 m01:20-2,7-3,2 (00:00)-2,7 (01:20)0,0 l/m²94%1019,912,9 km/h (3 Bft) S-SW14,5 km/h (3 Bft) S-SW (00:10)
Ravensburg, Springerstraße441 m01:20-2,0-2,4 (00:00)-2,0 (01:20)0,0 l/m²83%1018,54,3 km/h (1 Bft) NW12,1 km/h (3 Bft) NW (00:55)
Ravensburg-Oberzell422 m01:24-3,4-3,8 (00:00)-3,4 (01:15)0,6 l/m²92%1021,44,7 km/h (1 Bft) S-SW11,2 km/h (2 Bft) S-SW (01:09)
Ravensburg-Weißenau426 m01:21-3,0-3,4 (00:00)-2,9 (01:19)0,0 l/m²94%1021,04,8 km/h (1 Bft) S-SW8,0 km/h (2 Bft) S-SW (00:28)
Ravensburg-Wernsreute511 m01:20-4,3-4,6 (02:00)-4,3 (10:55)0,6 l/m²95%1023,68,0 km/h (2 Bft) S14,5 km/h (3 Bft) S-SW (17:10)
Reichenbach an der Fils343 m01:20-2,6-2,6 (01:15)-2,4 (00:00)0,0 l/m²85%1021,41,6 km/h (1 Bft) W-SW6,4 km/h (2 Bft) W-SW (00:30)
Reinstetten559 m01:20-3,8-4,2 (00:00)-3,8 (01:05)0,0 l/m²92%1020,512,9 km/h (3 Bft) S-SW22,5 km/h (4 Bft) S-SW (00:50)
Riedlingen530 m01:20-4,0-4,2 (00:00)-4,0 (01:05)0,2 l/m²94%1020,10,0 km/h (0 Bft) SW14,5 km/h (3 Bft) W-SW (00:05)
Rißtissen489 m01:20-3,3-3,7 (00:00)-3,2 (01:05)0,0 l/m²93%1017,00,0 km/h (0 Bft) SW6,4 km/h (2 Bft) S-SW (00:00)
Rottweil-Hausen681 m01:24-4,8-5,4 (00:00)-4,7 (01:01)0,0 l/m²92%1020,111,2 km/h (2 Bft) NW16,2 km/h (3 Bft) NW (01:00)
Schemmerhofen520 m01:20-3,7-3,9 (00:00)-3,7 (00:55)0,0 l/m²93%1019,59,7 km/h (2 Bft) S-SW9,7 km/h (2 Bft) SW (00:00)
Schwörstadt304 m01:21-3,0-3,2 (00:00)-3,0 (00:58)0,6 l/m²94%1021,50,0 km/h (0 Bft) NO0,0 km/h (0 Bft) NO (00:00)
Silbertal im Montafon (AT)884 m01:22-5,7-6,9 (00:00)-5,7 (01:16)0,0 l/m²84%1025,80,0 km/h (0 Bft) N-NW0,0 km/h (0 Bft) N-NW (00:00)
Tettnang466 m01:24-3,7-3,7 (00:00)-3,4 (00:25)1,0 l/m²93%1020,814,4 km/h (3 Bft) SO16,2 km/h (3 Bft) O-SO (01:05)
Tettnang-Unterwolfertsweiler480 m01:20-4,1-4,1 (02:00)-3,8 (13:46)0,2 l/m²94%1020,514,5 km/h (3 Bft) O-SO16,1 km/h (3 Bft) SO (00:54)
Tuttlingen648 m01:15-6,0-6,7 (00:15)-6,0 (01:15)0,0 l/m²94%1016,60,0 km/h (0 Bft) O-NO1,0 km/h (0 Bft) NO (00:10)
Tuttlingen, Möhringer-Vorstadt711 m01:20-5,1-5,4 (02:00)-5,1 (11:40)0,0 l/m²94%1020,26,4 km/h (2 Bft) N-NW14,5 km/h (3 Bft) N-NW (14:00)
Ummendorf547 m01:20-3,8-4,2 (00:00)-3,8 (00:50)0,0 l/m²82%1020,911,3 km/h (2 Bft) S-SW19,3 km/h (3 Bft) SW (00:30)
Ummendorf-Fischbach558 m01:20-4,1-4,3 (00:00)-4,1 (00:45)0,0 l/m²82%1020,616,1 km/h (3 Bft) S22,5 km/h (4 Bft) SW (00:15)
Waldburg, Truchsessenweg707 m01:20-4,8-4,9 (00:00)-4,7 (00:40)0,4 l/m²95%1020,30,0 km/h (0 Bft) N9,7 km/h (2 Bft) N (00:05)
Waltenhofen im Allgäu720 m01:05-7,1-8,4 (00:00)-7,1 (01:05)0,0 l/m²95%1021,13,2 km/h (1 Bft) SW12,9 km/h (3 Bft) SW (17:15)
Wangen, Hans-Schnitzer-Weg569 m01:21-4,5-4,6 (00:00)-4,5 (00:30)0,0 l/m²83%1019,84,7 km/h (1 Bft) S6,5 km/h (2 Bft) S (00:20)
Wangen, Südring548 m01:23-4,4-4,7 (00:00)-4,4 (00:54)0,0 l/m²93%1020,50,0 km/h (0 Bft) S0,0 km/h (0 Bft) SW (00:00)
Wangen-Leupolz612 m01:23-5,1-5,2 (00:00)-5,1 (00:01)0,0 l/m²95%1021,87,9 km/h (2 Bft) S-SW16,2 km/h (3 Bft) S-SW (00:01)
Warthausen-Birkenhard581 m01:24-4,7-5,1 (00:00)-4,7 (01:09)0,0 l/m²94%1019,80,0 km/h (0 Bft) S-SW0,0 km/h (0 Bft) W-SW (00:00)
Weingarten500 m01:20-3,1-3,2 (00:00)-3,1 (00:10)0,0 l/m²93%1020,13,2 km/h (1 Bft) SO9,7 km/h (2 Bft) SO (00:40)
Winterlingen785 m01:15-6,2-6,5 (00:30)-6,2 (01:15)0,3 l/m²93%1018,33,6 km/h (1 Bft) S-SW4,3 km/h (1 Bft) S (00:00)

niederschlagsdatenbank | info | login - erfassung

Sollten Sie Interesse haben, an der Niederschlagsdatenbank teilzunehmen, finden Sie > hier < weitere Informationen.
Datum: . . Kalender
Anmerkung:0,0  = nicht messbarer Niederschlag
k    = kumulierter Niederschlag

< 13.01.201915.01.2019 >


Kartografische Darstellung der Tagesniederschläge vom 14.01.2019    -    derzeit 131 Stationen

Niederschlagsmengen Legende:

Legende
Liter / m²

< 13.01.201915.01.2019 >

 
wetterstationen
wetterstationen
- derzeit 99 Stationen
niederschlagsdatenbank
wetterstationen
- kartographische Darstellung
niederschlagsdatenbank
niederschlagsstationen
- derzeit 131 Stationen
niederschlagsdatenbank
niederschlagsstationen
- kartographische Darstellung
 
 
Sa. 7.30 Uhr - So. 7.30 Uhr (MEZ)
1.Bonndorf
Im Tännle 12
3,0 l/m²
2.Ostrach
Denkmalweg
0,0 l/m²
 
So. 17.01.2021 - 7.30 Uhr (MEZ)
1.Bonndorf
Im Tännle 12
60 cm
 
  treffpunkt & service
--- Anzeigen --------------------------------
zugriffe:
insgesamt: 50.905.414
aktueller monat: 252.823
heute: 1.205
momentan online: 16
 
 
monatshöchstwert: 703.589
vorheriger monat: 372.581
gestern: 12.981
tageshöchstwert: 60.571
 
wetterwarte süd
 
konradstraße 3
info@wetterwarte-sued.com
roland roth
 
88427 bad schussenried